Airfield :







YOU CAN JOIN US ON...

 
LOGIN :

Register | Disclaimer

   EN    FR    IT 

 









Legend :    VFR   Marginal VFR   IFR   Intensive IFR   Very Intensive IFR
Visi :
Ceiling :
>= 8 km
>= 3000ft
5 to 8 km
1000 to 3000 ft
1500m to 5 km
500 to 1000 ft
800 to 1500m
200 to 500 ft
< 800m
< 200 ft
Symbols :   Thunderstorms  Fog  Heavy snow  Heavy precipitations  Wind > 20 kt







- Airport Elevation : 20 ft
- IATA code : BOS


KBOS - General Edward Lawrence Logan International

CURRENT METAR :
  • 211654Z 14006KT 10SM FEW030 28/12 A3016 RMK AO2 SLP214 T02780122

EXPIRED METARs :
  • 211554Z 17003KT 10SM CLR 27/12 A3018 RMK AO2 SLP221 T02720117
  • 211454Z VRB04KT 10SM CLR 27/13 A3020 RMK AO2 SLP226 T02670128 51005

TAF KBOS
Valid from the 21 at 14:00 until the 22 at 18:00 UTC


211424Z 2114/2218 31004KT P6SM SKC
FM211530 04004KT P6SM SKC
FM211730 12006KT P6SM SKC
FM220200 18006KT P6SM SKC
FM220600 21006KT P6SM SKC
No reported NOTAMs for that airfield.



MET'MAP, your aeronautical weather chart ! - Copyright ORBIFLY December 2007 - Disclaimer

ORBIFLY MET'MAP TEAM :

Programming & Development : Alexandra Zaïnal
Concept & Development : Baudouin d'Aumeries
Co-Development & Prog : Marc-Olivier Méhu
Technical & hardware support : Manuel Goepfert

Contact : metmap@orbifly.com




SOURCES & CREDITS :

   NOAA